sensor_id;sensor_type;location;lat;lon;timestamp;pressure;altitude;pressure_sealevel;temperature;humidity
62201;BME280;48197;42.732;27.192;2023-07-02T00:00:50;98996.06;;;16.83;100.00
62201;BME280;48197;42.732;27.192;2023-07-02T00:03:18;98987.97;;;16.76;100.00
62201;BME280;48197;42.732;27.192;2023-07-02T00:05:48;98990.16;;;16.81;100.00
62201;BME280;48197;42.732;27.192;2023-07-02T00:08:17;98986.94;;;16.92;100.00
62201;BME280;48197;42.732;27.192;2023-07-02T00:10:45;98986.63;;;16.99;100.00
62201;BME280;48197;42.732;27.192;2023-07-02T00:13:12;98987.06;;;16.98;100.00
62201;BME280;48197;42.732;27.192;2023-07-02T00:15:39;98991.41;;;16.89;100.00
62201;BME280;48197;42.732;27.192;2023-07-02T00:18:07;98986.16;;;16.82;100.00
62201;BME280;48197;42.732;27.192;2023-07-02T00:20:34;98973.56;;;16.78;100.00
62201;BME280;48197;42.732;27.192;2023-07-02T00:23:04;98969.88;;;16.90;100.00
62201;BME280;48197;42.732;27.192;2023-07-02T00:25:31;98973.09;;;17.07;100.00
62201;BME280;48197;42.732;27.192;2023-07-02T00:27:58;98983.50;;;17.16;100.00
62201;BME280;48197;42.732;27.192;2023-07-02T00:30:25;98986.13;;;17.19;100.00
62201;BME280;48197;42.732;27.192;2023-07-02T00:32:52;98973.25;;;17.12;100.00
62201;BME280;48197;42.732;27.192;2023-07-02T00:35:20;98965.06;;;17.00;100.00
62201;BME280;48197;42.732;27.192;2023-07-02T00:37:48;98959.63;;;16.96;100.00
62201;BME280;48197;42.732;27.192;2023-07-02T00:40:16;98966.63;;;17.01;100.00
62201;BME280;48197;42.732;27.192;2023-07-02T00:42:43;98952.78;;;17.06;100.00
62201;BME280;48197;42.732;27.192;2023-07-02T00:45:10;98955.09;;;17.17;100.00
62201;BME280;48197;42.732;27.192;2023-07-02T00:47:37;98942.97;;;17.29;100.00
62201;BME280;48197;42.732;27.192;2023-07-02T00:50:05;98950.41;;;17.42;100.00
62201;BME280;48197;42.732;27.192;2023-07-02T00:52:33;98942.44;;;17.49;100.00
62201;BME280;48197;42.732;27.192;2023-07-02T00:54:59;98938.72;;;17.52;100.00
62201;BME280;48197;42.732;27.192;2023-07-02T00:57:27;98944.44;;;17.58;100.00
62201;BME280;48197;42.732;27.192;2023-07-02T00:59:57;98948.00;;;17.59;100.00
62201;BME280;48197;42.732;27.192;2023-07-02T01:02:24;98946.44;;;17.67;100.00
62201;BME280;48197;42.732;27.192;2023-07-02T01:04:52;98948.13;;;17.64;100.00
62201;BME280;48197;42.732;27.192;2023-07-02T01:07:25;98952.53;;;17.56;100.00
62201;BME280;48197;42.732;27.192;2023-07-02T01:09:52;98948.22;;;17.46;100.00
62201;BME280;48197;42.732;27.192;2023-07-02T01:12:20;98947.34;;;17.30;100.00
62201;BME280;48197;42.732;27.192;2023-07-02T01:14:51;98939.59;;;17.16;100.00
62201;BME280;48197;42.732;27.192;2023-07-02T01:17:20;98936.69;;;17.01;100.00
62201;BME280;48197;42.732;27.192;2023-07-02T01:19:52;98939.31;;;16.96;100.00
62201;BME280;48197;42.732;27.192;2023-07-02T01:22:23;98940.88;;;16.87;100.00
62201;BME280;48197;42.732;27.192;2023-07-02T01:24:51;98947.69;;;16.77;100.00
62201;BME280;48197;42.732;27.192;2023-07-02T01:27:19;98942.09;;;16.77;100.00
62201;BME280;48197;42.732;27.192;2023-07-02T01:29:46;98940.09;;;16.87;100.00
62201;BME280;48197;42.732;27.192;2023-07-02T01:32:14;98939.94;;;17.00;100.00
62201;BME280;48197;42.732;27.192;2023-07-02T01:34:41;98938.81;;;17.06;100.00
62201;BME280;48197;42.732;27.192;2023-07-02T01:37:10;98931.06;;;17.10;100.00
62201;BME280;48197;42.732;27.192;2023-07-02T01:39:37;98941.16;;;17.08;100.00
62201;BME280;48197;42.732;27.192;2023-07-02T01:42:11;98938.66;;;17.19;100.00
62201;BME280;48197;42.732;27.192;2023-07-02T01:44:38;98940.03;;;17.33;100.00
62201;BME280;48197;42.732;27.192;2023-07-02T01:47:05;98944.34;;;17.34;100.00
62201;BME280;48197;42.732;27.192;2023-07-02T01:49:33;98942.38;;;17.25;100.00
62201;BME280;48197;42.732;27.192;2023-07-02T01:52:00;98942.41;;;17.16;100.00
62201;BME280;48197;42.732;27.192;2023-07-02T01:54:27;98945.97;;;17.07;100.00
62201;BME280;48197;42.732;27.192;2023-07-02T01:56:55;98941.47;;;17.10;100.00
62201;BME280;48197;42.732;27.192;2023-07-02T01:59:23;98944.22;;;17.28;100.00
62201;BME280;48197;42.732;27.192;2023-07-02T02:01:51;98951.31;;;17.39;100.00
62201;BME280;48197;42.732;27.192;2023-07-02T02:04:18;98946.03;;;17.41;100.00
62201;BME280;48197;42.732;27.192;2023-07-02T02:06:46;98940.44;;;17.41;100.00
62201;BME280;48197;42.732;27.192;2023-07-02T02:09:13;98938.31;;;17.35;100.00
62201;BME280;48197;42.732;27.192;2023-07-02T02:11:42;98940.03;;;17.33;100.00
62201;BME280;48197;42.732;27.192;2023-07-02T02:14:10;98938.66;;;17.28;100.00
62201;BME280;48197;42.732;27.192;2023-07-02T02:16:37;98943.31;;;17.22;100.00
62201;BME280;48197;42.732;27.192;2023-07-02T02:19:04;98933.06;;;17.19;100.00
62201;BME280;48197;42.732;27.192;2023-07-02T02:21:31;98933.84;;;17.20;100.00
62201;BME280;48197;42.732;27.192;2023-07-02T02:23:58;98934.47;;;17.14;100.00
62201;BME280;48197;42.732;27.192;2023-07-02T02:26:26;98936.16;;;17.21;100.00
62201;BME280;48197;42.732;27.192;2023-07-02T02:28:53;98932.91;;;17.23;100.00
62201;BME280;48197;42.732;27.192;2023-07-02T02:31:20;98935.53;;;17.26;100.00
62201;BME280;48197;42.732;27.192;2023-07-02T02:33:47;98937.25;;;17.24;100.00
62201;BME280;48197;42.732;27.192;2023-07-02T02:36:15;98932.28;;;17.19;100.00
62201;BME280;48197;42.732;27.192;2023-07-02T02:38:44;98927.19;;;17.17;100.00
62201;BME280;48197;42.732;27.192;2023-07-02T02:41:11;98931.84;;;17.11;100.00
62201;BME280;48197;42.732;27.192;2023-07-02T02:43:41;98932.63;;;17.02;100.00
62201;BME280;48197;42.732;27.192;2023-07-02T02:46:09;98933.13;;;16.91;100.00
62201;BME280;48197;42.732;27.192;2023-07-02T02:48:36;98926.28;;;16.83;100.00
62201;BME280;48197;42.732;27.192;2023-07-02T02:51:03;98922.88;;;16.79;100.00
62201;BME280;48197;42.732;27.192;2023-07-02T02:53:30;98930.31;;;16.73;100.00
62201;BME280;48197;42.732;27.192;2023-07-02T02:55:57;98934.34;;;16.63;100.00
62201;BME280;48197;42.732;27.192;2023-07-02T02:58:24;98936.66;;;16.55;100.00
62201;BME280;48197;42.732;27.192;2023-07-02T03:00:50;98940.53;;;16.48;100.00
62201;BME280;48197;42.732;27.192;2023-07-02T03:03:18;98932.31;;;16.45;100.00
62201;BME280;48197;42.732;27.192;2023-07-02T03:05:47;98932.50;;;16.41;100.00
62201;BME280;48197;42.732;27.192;2023-07-02T03:08:15;98939.28;;;16.40;100.00
62201;BME280;48197;42.732;27.192;2023-07-02T03:10:42;98934.47;;;16.41;100.00
62201;BME280;48197;42.732;27.192;2023-07-02T03:13:10;98937.56;;;16.43;100.00
62201;BME280;48197;42.732;27.192;2023-07-02T03:15:37;98947.81;;;16.46;100.00
62201;BME280;48197;42.732;27.192;2023-07-02T03:18:04;98934.50;;;16.50;100.00
62201;BME280;48197;42.732;27.192;2023-07-02T03:20:31;98943.81;;;16.56;100.00
62201;BME280;48197;42.732;27.192;2023-07-02T03:22:58;98945.81;;;16.65;100.00
62201;BME280;48197;42.732;27.192;2023-07-02T03:25:26;98954.19;;;16.74;100.00
62201;BME280;48197;42.732;27.192;2023-07-02T03:27:53;98955.47;;;16.82;100.00
62201;BME280;48197;42.732;27.192;2023-07-02T03:30:21;98955.44;;;16.91;100.00
62201;BME280;48197;42.732;27.192;2023-07-02T03:32:48;98966.00;;;16.97;100.00
62201;BME280;48197;42.732;27.192;2023-07-02T03:35:16;98949.25;;;16.97;100.00
62201;BME280;48197;42.732;27.192;2023-07-02T03:37:43;98962.72;;;16.98;100.00
62201;BME280;48197;42.732;27.192;2023-07-02T03:40:11;98960.72;;;17.08;100.00
62201;BME280;48197;42.732;27.192;2023-07-02T03:42:38;98967.06;;;17.18;100.00
62201;BME280;48197;42.732;27.192;2023-07-02T03:45:06;98962.56;;;17.20;100.00
62201;BME280;48197;42.732;27.192;2023-07-02T03:47:33;98966.25;;;17.17;100.00
62201;BME280;48197;42.732;27.192;2023-07-02T03:50:00;98968.94;;;17.11;100.00
62201;BME280;48197;42.732;27.192;2023-07-02T03:52:28;98971.09;;;17.07;100.00
62201;BME280;48197;42.732;27.192;2023-07-02T03:54:55;98972.03;;;17.13;100.00
62201;BME280;48197;42.732;27.192;2023-07-02T03:57:22;98974.94;;;17.28;100.00
62201;BME280;48197;42.732;27.192;2023-07-02T03:59:50;98971.47;;;17.43;100.00
62201;BME280;48197;42.732;27.192;2023-07-02T04:02:17;98979.06;;;17.61;100.00
62201;BME280;48197;42.732;27.192;2023-07-02T04:04:44;98968.41;;;17.83;100.00
62201;BME280;48197;42.732;27.192;2023-07-02T04:07:11;98983.34;;;18.13;100.00
62201;BME280;48197;42.732;27.192;2023-07-02T04:09:39;98983.25;;;18.32;100.00
62201;BME280;48197;42.732;27.192;2023-07-02T04:12:07;98990.63;;;18.44;100.00
62201;BME280;48197;42.732;27.192;2023-07-02T04:14:34;98988.94;;;18.62;100.00
62201;BME280;48197;42.732;27.192;2023-07-02T04:17:02;98987.75;;;19.02;100.00
62201;BME280;48197;42.732;27.192;2023-07-02T04:19:30;98996.66;;;19.30;100.00
62201;BME280;48197;42.732;27.192;2023-07-02T04:21:58;99001.97;;;19.43;100.00
62201;BME280;48197;42.732;27.192;2023-07-02T04:24:26;98999.63;;;19.26;100.00
62201;BME280;48197;42.732;27.192;2023-07-02T04:26:53;98992.84;;;19.03;100.00
62201;BME280;48197;42.732;27.192;2023-07-02T04:29:20;99002.88;;;18.95;100.00
62201;BME280;48197;42.732;27.192;2023-07-02T04:31:48;99010.78;;;18.96;100.00
62201;BME280;48197;42.732;27.192;2023-07-02T04:34:15;98999.59;;;18.96;100.00
62201;BME280;48197;42.732;27.192;2023-07-02T04:36:43;98999.50;;;18.91;100.00
62201;BME280;48197;42.732;27.192;2023-07-02T04:39:10;98994.50;;;18.95;100.00
62201;BME280;48197;42.732;27.192;2023-07-02T04:41:37;99005.44;;;19.23;100.00
62201;BME280;48197;42.732;27.192;2023-07-02T04:44:05;98996.56;;;19.54;100.00
62201;BME280;48197;42.732;27.192;2023-07-02T04:46:32;98998.97;;;19.91;100.00
62201;BME280;48197;42.732;27.192;2023-07-02T04:48:59;99001.72;;;20.21;100.00
62201;BME280;48197;42.732;27.192;2023-07-02T04:51:26;99008.19;;;20.47;100.00
62201;BME280;48197;42.732;27.192;2023-07-02T04:53:54;98994.88;;;20.63;100.00
62201;BME280;48197;42.732;27.192;2023-07-02T04:56:21;98999.09;;;20.73;100.00
62201;BME280;48197;42.732;27.192;2023-07-02T04:58:48;98990.78;;;20.84;100.00
62201;BME280;48197;42.732;27.192;2023-07-02T05:01:16;99002.28;;;21.07;100.00
62201;BME280;48197;42.732;27.192;2023-07-02T05:03:44;98991.81;;;21.33;100.00
62201;BME280;48197;42.732;27.192;2023-07-02T05:06:11;99001.09;;;21.66;100.00
62201;BME280;48197;42.732;27.192;2023-07-02T05:08:38;98985.53;;;22.02;100.00
62201;BME280;48197;42.732;27.192;2023-07-02T05:11:05;98991.91;;;22.40;100.00
62201;BME280;48197;42.732;27.192;2023-07-02T05:13:33;98995.91;;;22.71;100.00
62201;BME280;48197;42.732;27.192;2023-07-02T05:16:00;98988.84;;;23.03;94.11
62201;BME280;48197;42.732;27.192;2023-07-02T05:18:27;98997.38;;;23.26;89.76
62201;BME280;48197;42.732;27.192;2023-07-02T05:20:55;99007.63;;;23.29;86.31
62201;BME280;48197;42.732;27.192;2023-07-02T05:23:23;99008.91;;;23.39;86.77
62201;BME280;48197;42.732;27.192;2023-07-02T05:25:50;99013.03;;;23.55;88.25
62201;BME280;48197;42.732;27.192;2023-07-02T05:28:18;99016.38;;;23.71;87.49
62201;BME280;48197;42.732;27.192;2023-07-02T05:30:45;99012.31;;;23.89;87.37
62201;BME280;48197;42.732;27.192;2023-07-02T05:33:11;99009.94;;;24.15;82.74
62201;BME280;48197;42.732;27.192;2023-07-02T05:35:38;99003.69;;;24.62;78.10
62201;BME280;48197;42.732;27.192;2023-07-02T05:38:05;99000.97;;;25.03;72.64
62201;BME280;48197;42.732;27.192;2023-07-02T05:40:33;99004.47;;;25.21;68.59
62201;BME280;48197;42.732;27.192;2023-07-02T05:43:01;98992.09;;;25.24;67.77
62201;BME280;48197;42.732;27.192;2023-07-02T05:45:28;98993.44;;;25.53;67.62
62201;BME280;48197;42.732;27.192;2023-07-02T05:47:56;98990.88;;;25.85;62.86
62201;BME280;48197;42.732;27.192;2023-07-02T05:50:24;98991.56;;;26.22;58.57
62201;BME280;48197;42.732;27.192;2023-07-02T05:52:51;98993.88;;;26.48;56.90
62201;BME280;48197;42.732;27.192;2023-07-02T05:55:19;98995.97;;;26.91;54.25
62201;BME280;48197;42.732;27.192;2023-07-02T05:57:46;99002.25;;;27.22;52.69
62201;BME280;48197;42.732;27.192;2023-07-02T06:00:13;98985.44;;;27.75;51.70
62201;BME280;48197;42.732;27.192;2023-07-02T06:02:40;98978.66;;;28.37;49.52
62201;BME280;48197;42.732;27.192;2023-07-02T06:05:08;98971.63;;;28.78;47.71
62201;BME280;48197;42.732;27.192;2023-07-02T06:07:35;98963.28;;;29.07;47.24
62201;BME280;48197;42.732;27.192;2023-07-02T06:10:03;98965.81;;;29.31;45.66
62201;BME280;48197;42.732;27.192;2023-07-02T06:12:31;98962.88;;;29.79;44.86
62201;BME280;48197;42.732;27.192;2023-07-02T06:14:58;98957.63;;;30.41;43.70
62201;BME280;48197;42.732;27.192;2023-07-02T06:17:26;98958.28;;;31.06;42.57
62201;BME280;48197;42.732;27.192;2023-07-02T06:19:53;98962.22;;;31.70;41.24
62201;BME280;48197;42.732;27.192;2023-07-02T06:22:20;98966.63;;;32.10;38.83
62201;BME280;48197;42.732;27.192;2023-07-02T06:24:47;98968.28;;;32.44;37.94
62201;BME280;48197;42.732;27.192;2023-07-02T06:27:14;98965.53;;;32.77;37.67
62201;BME280;48197;42.732;27.192;2023-07-02T06:29:41;98970.06;;;33.28;36.37
62201;BME280;48197;42.732;27.192;2023-07-02T06:32:08;98962.94;;;33.69;35.64
62201;BME280;48197;42.732;27.192;2023-07-02T06:34:35;98964.59;;;33.97;35.06
62201;BME280;48197;42.732;27.192;2023-07-02T06:37:04;98965.09;;;34.46;34.50
62201;BME280;48197;42.732;27.192;2023-07-02T06:39:31;98966.66;;;34.40;34.23
62201;BME280;48197;42.732;27.192;2023-07-02T06:41:58;98968.44;;;34.17;34.26
62201;BME280;48197;42.732;27.192;2023-07-02T06:44:26;98966.25;;;34.78;33.50
62201;BME280;48197;42.732;27.192;2023-07-02T06:46:53;98958.34;;;35.41;33.10
62201;BME280;48197;42.732;27.192;2023-07-02T06:49:21;98970.03;;;35.52;32.37
62201;BME280;48197;42.732;27.192;2023-07-02T06:51:48;98969.03;;;35.30;32.66
62201;BME280;48197;42.732;27.192;2023-07-02T06:54:16;98964.53;;;35.37;32.23
62201;BME280;48197;42.732;27.192;2023-07-02T06:56:43;98962.47;;;35.47;32.78
62201;BME280;48197;42.732;27.192;2023-07-02T06:59:10;98960.41;;;35.30;32.60
62201;BME280;48197;42.732;27.192;2023-07-02T07:01:37;98959.75;;;35.49;32.74
62201;BME280;48197;42.732;27.192;2023-07-02T07:04:05;98957.34;;;35.55;32.57
62201;BME280;48197;42.732;27.192;2023-07-02T07:06:31;98957.06;;;35.98;32.13
62201;BME280;48197;42.732;27.192;2023-07-02T07:08:59;98961.34;;;36.36;31.75
62201;BME280;48197;42.732;27.192;2023-07-02T07:11:27;98958.97;;;36.71;30.83
62201;BME280;48197;42.732;27.192;2023-07-02T07:13:54;98952.28;;;36.59;30.78
62201;BME280;48197;42.732;27.192;2023-07-02T07:16:22;98947.75;;;36.56;31.00
62201;BME280;48197;42.732;27.192;2023-07-02T07:18:49;98936.81;;;37.13;30.32
62201;BME280;48197;42.732;27.192;2023-07-02T07:21:17;98944.75;;;37.34;29.57
62201;BME280;48197;42.732;27.192;2023-07-02T07:23:44;98938.00;;;37.51;29.86
62201;BME280;48197;42.732;27.192;2023-07-02T07:26:11;98940.28;;;37.52;29.89
62201;BME280;48197;42.732;27.192;2023-07-02T07:28:38;98936.72;;;37.32;29.72
62201;BME280;48197;42.732;27.192;2023-07-02T07:31:05;98933.13;;;37.22;30.07
62201;BME280;48197;42.732;27.192;2023-07-02T07:33:33;98933.28;;;37.14;30.46
62201;BME280;48197;42.732;27.192;2023-07-02T07:36:00;98931.38;;;36.88;29.86
62201;BME280;48197;42.732;27.192;2023-07-02T07:38:28;98925.75;;;36.90;30.05
62201;BME280;48197;42.732;27.192;2023-07-02T07:40:55;98938.00;;;37.10;29.67
62201;BME280;48197;42.732;27.192;2023-07-02T07:43:23;98939.88;;;36.37;30.67
62201;BME280;48197;42.732;27.192;2023-07-02T07:45:50;98935.63;;;36.38;31.95
62201;BME280;48197;42.732;27.192;2023-07-02T07:48:17;98940.00;;;36.29;31.14
62201;BME280;48197;42.732;27.192;2023-07-02T07:50:44;98935.28;;;36.05;32.28
62201;BME280;48197;42.732;27.192;2023-07-02T07:53:11;98946.38;;;35.71;31.61
62201;BME280;48197;42.732;27.192;2023-07-02T07:55:39;98947.28;;;35.37;32.40
62201;BME280;48197;42.732;27.192;2023-07-02T07:58:06;98947.69;;;35.61;32.00
62201;BME280;48197;42.732;27.192;2023-07-02T08:00:33;98950.00;;;36.18;32.60
62201;BME280;48197;42.732;27.192;2023-07-02T08:03:01;98947.88;;;36.48;31.21
62201;BME280;48197;42.732;27.192;2023-07-02T08:05:28;98949.41;;;36.78;31.42
62201;BME280;48197;42.732;27.192;2023-07-02T08:07:56;98949.25;;;36.76;30.80
62201;BME280;48197;42.732;27.192;2023-07-02T08:10:25;98941.81;;;36.93;31.29
62201;BME280;48197;42.732;27.192;2023-07-02T08:12:50;98942.69;;;36.95;30.46
62201;BME280;48197;42.732;27.192;2023-07-02T08:15:19;98938.06;;;36.71;31.92
62201;BME280;48197;42.732;27.192;2023-07-02T08:17:46;98938.03;;;36.22;33.52
62201;BME280;48197;42.732;27.192;2023-07-02T08:20:13;98936.50;;;35.01;35.02
62201;BME280;48197;42.732;27.192;2023-07-02T08:22:41;98937.78;;;34.90;35.90
62201;BME280;48197;42.732;27.192;2023-07-02T08:25:08;98936.53;;;35.28;35.48
62201;BME280;48197;42.732;27.192;2023-07-02T08:27:35;98939.63;;;35.49;35.76
62201;BME280;48197;42.732;27.192;2023-07-02T08:30:02;98928.63;;;35.55;34.93
62201;BME280;48197;42.732;27.192;2023-07-02T08:32:29;98928.59;;;35.92;34.06
62201;BME280;48197;42.732;27.192;2023-07-02T08:34:55;98923.19;;;36.06;34.02
62201;BME280;48197;42.732;27.192;2023-07-02T08:37:23;98920.19;;;36.63;33.15
62201;BME280;48197;42.732;27.192;2023-07-02T08:39:49;98916.09;;;36.66;33.86
62201;BME280;48197;42.732;27.192;2023-07-02T08:42:16;98924.28;;;36.69;33.17
62201;BME280;48197;42.732;27.192;2023-07-02T08:44:46;98921.19;;;36.96;33.99
62201;BME280;48197;42.732;27.192;2023-07-02T08:47:14;98934.06;;;37.05;33.26
62201;BME280;48197;42.732;27.192;2023-07-02T08:49:41;98923.00;;;37.11;34.05
62201;BME280;48197;42.732;27.192;2023-07-02T08:52:09;98924.38;;;35.93;33.58
62201;BME280;48197;42.732;27.192;2023-07-02T08:54:36;98924.69;;;34.17;36.84
62201;BME280;48197;42.732;27.192;2023-07-02T08:57:04;98925.41;;;34.52;37.12
62201;BME280;48197;42.732;27.192;2023-07-02T08:59:31;98923.28;;;34.88;36.76
62201;BME280;48197;42.732;27.192;2023-07-02T09:01:58;98917.56;;;35.15;35.46
62201;BME280;48197;42.732;27.192;2023-07-02T09:04:26;98912.06;;;35.09;35.59
62201;BME280;48197;42.732;27.192;2023-07-02T09:07:04;98919.97;;;34.91;34.99
62201;BME280;48197;42.732;27.192;2023-07-02T09:09:32;98928.81;;;34.24;36.83
62201;BME280;48197;42.732;27.192;2023-07-02T09:11:59;98936.91;;;34.17;37.22
62201;BME280;48197;42.732;27.192;2023-07-02T09:14:28;98931.59;;;34.66;37.21
62201;BME280;48197;42.732;27.192;2023-07-02T09:17:04;98925.25;;;35.12;36.83
62201;BME280;48197;42.732;27.192;2023-07-02T09:19:32;98924.66;;;35.14;37.94
62201;BME280;48197;42.732;27.192;2023-07-02T09:21:59;98925.06;;;35.10;36.91
62201;BME280;48197;42.732;27.192;2023-07-02T09:24:30;98919.84;;;35.16;35.82
62201;BME280;48197;42.732;27.192;2023-07-02T09:27:01;98926.38;;;35.00;36.42
62201;BME280;48197;42.732;27.192;2023-07-02T09:31:57;98915.25;;;35.68;34.99
62201;BME280;48197;42.732;27.192;2023-07-02T09:34:29;98920.94;;;34.76;35.42
62201;BME280;48197;42.732;27.192;2023-07-02T09:36:58;98929.53;;;34.07;36.25
62201;BME280;48197;42.732;27.192;2023-07-02T09:39:27;98924.63;;;33.24;38.08
62201;BME280;48197;42.732;27.192;2023-07-02T10:12:55;98909.94;;;30.41;46.78
62201;BME280;48197;42.732;27.192;2023-07-02T10:15:26;98903.72;;;30.22;47.26
62201;BME280;48197;42.732;27.192;2023-07-02T10:17:57;98897.34;;;30.00;47.35
62201;BME280;48197;42.732;27.192;2023-07-02T10:20:38;98902.22;;;29.92;47.50
62201;BME280;48197;42.732;27.192;2023-07-02T10:23:07;98903.19;;;29.95;47.19
62201;BME280;48197;42.732;27.192;2023-07-02T10:25:35;98903.25;;;30.02;46.91
62201;BME280;48197;42.732;27.192;2023-07-02T10:28:24;98902.19;;;30.21;46.84
62201;BME280;48197;42.732;27.192;2023-07-02T10:30:53;98899.19;;;30.63;46.70
62201;BME280;48197;42.732;27.192;2023-07-02T10:33:22;98895.72;;;31.01;46.31
62201;BME280;48197;42.732;27.192;2023-07-02T10:35:51;98898.81;;;31.33;45.16
62201;BME280;48197;42.732;27.192;2023-07-02T10:38:19;98906.81;;;31.81;44.70
62201;BME280;48197;42.732;27.192;2023-07-02T10:40:46;98903.22;;;32.67;42.77
62201;BME280;48197;42.732;27.192;2023-07-02T10:43:23;98902.41;;;33.07;42.07
62201;BME280;48197;42.732;27.192;2023-07-02T10:45:50;98895.13;;;32.81;41.72
62201;BME280;48197;42.732;27.192;2023-07-02T10:48:17;98901.78;;;32.35;42.58
62201;BME280;48197;42.732;27.192;2023-07-02T10:50:45;98901.66;;;32.03;43.24
62201;BME280;48197;42.732;27.192;2023-07-02T10:53:18;98900.81;;;32.89;42.67
62201;BME280;48197;42.732;27.192;2023-07-02T10:55:45;98900.09;;;33.89;40.97
62201;BME280;48197;42.732;27.192;2023-07-02T10:58:12;98897.25;;;34.06;39.70
62201;BME280;48197;42.732;27.192;2023-07-02T11:00:44;98908.66;;;33.71;39.78
62201;BME280;48197;42.732;27.192;2023-07-02T11:03:18;98910.44;;;33.09;40.90
62201;BME280;48197;42.732;27.192;2023-07-02T11:05:48;98905.06;;;32.72;41.28
62201;BME280;48197;42.732;27.192;2023-07-02T11:08:16;98903.28;;;32.37;42.06
62201;BME280;48197;42.732;27.192;2023-07-02T11:10:43;98899.19;;;31.91;42.61
62201;BME280;48197;42.732;27.192;2023-07-02T11:13:14;98900.19;;;31.71;43.19
62201;BME280;48197;42.732;27.192;2023-07-02T11:15:42;98900.34;;;31.58;44.75
62201;BME280;48197;42.732;27.192;2023-07-02T11:18:13;98892.53;;;31.66;44.61
62201;BME280;48197;42.732;27.192;2023-07-02T11:20:40;98905.50;;;31.67;44.00
62201;BME280;48197;42.732;27.192;2023-07-02T11:23:39;98908.16;;;31.72;44.40
62201;BME280;48197;42.732;27.192;2023-07-02T11:26:01;98906.44;;;31.46;44.14
62201;BME280;48197;42.732;27.192;2023-07-02T11:28:30;98901.31;;;31.52;44.71
62201;BME280;48197;42.732;27.192;2023-07-02T11:30:58;98900.72;;;31.62;44.86
62201;BME280;48197;42.732;27.192;2023-07-02T11:36:02;98900.56;;;31.44;44.89
62201;BME280;48197;42.732;27.192;2023-07-02T11:38:29;98901.44;;;31.24;45.42
62201;BME280;48197;42.732;27.192;2023-07-02T11:40:57;98896.94;;;30.69;46.77
62201;BME280;48197;42.732;27.192;2023-07-02T11:43:24;98907.41;;;28.35;57.18
62201;BME280;48197;42.732;27.192;2023-07-02T11:45:51;98895.66;;;26.75;70.61
62201;BME280;48197;42.732;27.192;2023-07-02T11:48:18;98898.97;;;26.17;73.88
62201;BME280;48197;42.732;27.192;2023-07-02T11:50:46;98903.00;;;26.46;73.83
62201;BME280;48197;42.732;27.192;2023-07-02T11:53:13;98892.63;;;27.70;68.46
62201;BME280;48197;42.732;27.192;2023-07-02T11:55:40;98893.25;;;28.83;61.52
62201;BME280;48197;42.732;27.192;2023-07-02T11:58:07;98888.88;;;30.16;56.36
62201;BME280;48197;42.732;27.192;2023-07-02T12:00:35;98888.00;;;31.47;51.29
62201;BME280;48197;42.732;27.192;2023-07-02T12:03:02;98885.31;;;32.59;46.82
62201;BME280;48197;42.732;27.192;2023-07-02T12:05:30;98889.56;;;33.91;42.63
62201;BME280;48197;42.732;27.192;2023-07-02T12:07:57;98885.97;;;33.15;42.73
62201;BME280;48197;42.732;27.192;2023-07-02T12:10:24;98879.94;;;33.79;41.94
62201;BME280;48197;42.732;27.192;2023-07-02T12:12:51;98879.50;;;35.14;39.33
62201;BME280;48197;42.732;27.192;2023-07-02T12:15:18;98874.19;;;35.21;38.69
62201;BME280;48197;42.732;27.192;2023-07-02T12:17:43;98880.88;;;34.96;38.43
62201;BME280;48197;42.732;27.192;2023-07-02T12:20:11;98875.63;;;35.39;37.30
62201;BME280;48197;42.732;27.192;2023-07-02T12:22:38;98871.44;;;37.15;34.37
62201;BME280;48197;42.732;27.192;2023-07-02T12:25:06;98871.34;;;38.52;32.51
62201;BME280;48197;42.732;27.192;2023-07-02T12:27:34;98868.38;;;38.86;31.64
62201;BME280;48197;42.732;27.192;2023-07-02T12:30:01;98870.13;;;38.79;31.83
62201;BME280;48197;42.732;27.192;2023-07-02T12:32:29;98865.31;;;38.60;32.18
62201;BME280;48197;42.732;27.192;2023-07-02T12:34:56;98865.19;;;39.15;31.00
62201;BME280;48197;42.732;27.192;2023-07-02T12:37:24;98861.47;;;39.48;30.01
62201;BME280;48197;42.732;27.192;2023-07-02T12:39:51;98861.84;;;38.73;30.41
62201;BME280;48197;42.732;27.192;2023-07-02T12:42:18;98860.72;;;37.37;31.94
62201;BME280;48197;42.732;27.192;2023-07-02T12:44:45;98866.84;;;35.84;34.14
62201;BME280;48197;42.732;27.192;2023-07-02T12:47:12;98860.72;;;34.59;35.60
62201;BME280;48197;42.732;27.192;2023-07-02T12:49:40;98870.53;;;34.04;36.98
62201;BME280;48197;42.732;27.192;2023-07-02T12:52:07;98874.53;;;33.83;38.27
62201;BME280;48197;42.732;27.192;2023-07-02T12:54:34;98873.53;;;33.46;39.66
62201;BME280;48197;42.732;27.192;2023-07-02T12:57:01;98877.53;;;32.92;40.53
62201;BME280;48197;42.732;27.192;2023-07-02T12:59:28;98876.94;;;32.53;41.46
62201;BME280;48197;42.732;27.192;2023-07-02T13:01:55;98870.91;;;32.34;42.46
62201;BME280;48197;42.732;27.192;2023-07-02T13:04:23;98880.66;;;32.23;43.00
62201;BME280;48197;42.732;27.192;2023-07-02T13:06:50;98877.22;;;32.25;43.63
62201;BME280;48197;42.732;27.192;2023-07-02T13:09:17;98873.50;;;32.47;43.19
62201;BME280;48197;42.732;27.192;2023-07-02T13:11:44;98867.28;;;32.41;43.47
62201;BME280;48197;42.732;27.192;2023-07-02T13:14:12;98867.72;;;32.22;43.37
62201;BME280;48197;42.732;27.192;2023-07-02T13:16:39;98865.97;;;32.27;43.62
62201;BME280;48197;42.732;27.192;2023-07-02T13:19:06;98869.78;;;32.22;44.79
62201;BME280;48197;42.732;27.192;2023-07-02T13:21:33;98870.97;;;32.19;45.95
62201;BME280;48197;42.732;27.192;2023-07-02T13:24:01;98870.97;;;32.11;45.99